Time;durP1;ratioP1;P1;durP2;ratioP2;P2;SDS_P1;SDS_P2;PMS_P1;PMS_P2;Temp;Humidity;BMP_temperature;BMP_pressure;BME280_temperature;BME280_humidity;BME280_pressure;Samples;Min_cycle;Max_cycle;Signal;HPM_P1;HPM_P2
2020/12/11 00:01:29;;;;;;;28.97;18.33;;;0.80;99.90;;;;;;5024759;28;20538;-76
2020/12/11 00:03:55;;;;;;;36.33;18.80;;;0.90;99.90;;;;;;5028564;28;20510;-77
2020/12/11 00:06:21;;;;;;;29.40;17.10;;;1.00;99.90;;;;;;5025869;28;20414;-77
2020/12/11 00:08:48;;;;;;;34.07;20.07;;;1.10;99.90;;;;;;5042747;28;20944;-77
2020/12/11 00:11:13;;;;;;;32.37;21.23;;;1.20;99.90;;;;;;5040772;28;20433;-77
2020/12/11 00:13:39;;;;;;;27.90;17.43;;;1.20;99.90;;;;;;5020645;28;20438;-77
2020/12/11 00:16:08;;;;;;;35.33;19.83;;;1.00;99.90;;;;;;5021827;28;20241;-77
2020/12/11 00:18:35;;;;;;;33.57;20.30;;;1.00;99.90;;;;;;5026476;28;20217;-77
2020/12/11 00:21:00;;;;;;;36.13;20.50;;;0.90;99.90;;;;;;5057615;28;20395;-77
2020/12/11 00:23:27;;;;;;;30.80;17.53;;;0.80;99.90;;;;;;5040890;28;20404;-77
2020/12/11 00:25:58;;;;;;;44.33;19.40;;;0.90;99.90;;;;;;5041077;28;20684;-77
2020/12/11 00:28:28;;;;;;;30.50;19.70;;;1.00;99.90;;;;;;5044543;28;20837;-77
2020/12/11 00:30:55;;;;;;;31.50;16.87;;;1.10;99.90;;;;;;5041103;28;20948;-77
2020/12/11 00:33:24;;;;;;;32.03;20.23;;;1.10;99.90;;;;;;5044006;28;20389;-77
2020/12/11 00:35:50;;;;;;;31.53;19.93;;;1.20;99.90;;;;;;5039919;28;20934;-77
2020/12/11 00:38:17;;;;;;;33.93;20.63;;;1.10;99.90;;;;;;5040500;28;20439;-77
2020/12/11 00:40:43;;;;;;;33.00;18.80;;;1.00;99.90;;;;;;5022177;28;20429;-77
2020/12/11 00:43:09;;;;;;;32.77;20.67;;;1.00;99.90;;;;;;5040506;28;20387;-77
2020/12/11 00:45:35;;;;;;;28.43;17.70;;;1.10;99.90;;;;;;5046517;28;20205;-77
2020/12/11 00:48:00;;;;;;;28.40;19.30;;;1.10;99.90;;;;;;5044024;28;20408;-77
2020/12/11 00:50:26;;;;;;;35.80;21.70;;;1.30;99.90;;;;;;5023361;28;20427;-77
2020/12/11 00:52:51;;;;;;;29.93;18.77;;;1.40;99.90;;;;;;5041572;28;20229;-77
2020/12/11 00:55:17;;;;;;;31.90;19.53;;;1.40;99.90;;;;;;5040844;28;20202;-77
2020/12/11 00:57:44;;;;;;;34.60;19.63;;;1.40;99.90;;;;;;5042940;28;20206;-77
2020/12/11 01:00:17;;;;;;;31.33;19.70;;;1.50;99.90;;;;;;5040147;28;20524;-77
2020/12/11 01:02:42;;;;;;;33.17;20.43;;;1.50;99.90;;;;;;5048689;28;20412;-77
2020/12/11 01:05:08;;;;;;;28.63;18.60;;;1.50;99.90;;;;;;5037018;28;20412;-77
2020/12/11 01:07:34;;;;;;;27.97;18.43;;;1.60;99.90;;;;;;5052561;28;20242;-77
2020/12/11 01:10:00;;;;;;;30.30;18.27;;;1.50;99.90;;;;;;5040150;28;20206;-77
2020/12/11 01:12:26;;;;;;;34.20;20.50;;;1.60;99.90;;;;;;5035872;28;20386;-77
2020/12/11 01:14:52;;;;;;;29.80;18.53;;;1.50;99.90;;;;;;5051790;28;20435;-74
2020/12/11 01:17:19;;;;;;;26.07;16.97;;;1.60;99.90;;;;;;5039442;28;20897;-76
2020/12/11 01:19:45;;;;;;;31.20;19.37;;;1.50;99.90;;;;;;5042916;28;20416;-75
2020/12/11 01:22:11;;;;;;;31.20;18.20;;;1.60;99.90;;;;;;5053278;28;20407;-76
2020/12/11 01:24:38;;;;;;;30.93;19.27;;;1.60;99.90;;;;;;5066147;28;20461;-76
2020/12/11 01:27:03;;;;;;;30.20;19.00;;;1.60;99.90;;;;;;5040542;28;20418;-75
2020/12/11 01:29:29;;;;;;;32.27;17.80;;;1.60;99.90;;;;;;5036136;28;20511;-75
2020/12/11 01:31:58;;;;;;;23.57;16.67;;;1.60;99.90;;;;;;5056794;28;20359;-75
2020/12/11 01:34:25;;;;;;;26.03;16.97;;;1.70;99.90;;;;;;5062065;28;20202;-75
2020/12/11 01:36:50;;;;;;;31.13;18.40;;;1.70;99.90;;;;;;5055222;28;20895;-75
2020/12/11 01:39:16;;;;;;;30.70;17.00;;;1.70;99.90;;;;;;5052679;28;20424;-75
2020/12/11 01:41:42;;;;;;;24.43;17.33;;;1.70;99.90;;;;;;5063817;28;20264;-75
2020/12/11 01:44:09;;;;;;;26.27;18.00;;;1.80;99.90;;;;;;5076028;28;20553;-75
2020/12/11 01:46:41;;;;;;;25.40;17.70;;;1.70;99.90;;;;;;5057191;28;20214;-76
2020/12/11 01:49:09;;;;;;;28.00;16.10;;;1.70;99.90;;;;;;5052905;28;20428;-76
2020/12/11 01:51:35;;;;;;;27.80;18.33;;;1.80;99.90;;;;;;5053445;28;21097;-76
2020/12/11 01:54:02;;;;;;;31.43;16.63;;;1.90;99.90;;;;;;5034862;28;20498;-75
2020/12/11 01:56:32;;;;;;;30.40;19.40;;;2.00;99.90;;;;;;5071194;28;20412;-76
2020/12/11 01:59:03;;;;;;;31.27;18.37;;;2.00;99.90;;;;;;5042991;28;20489;-75
2020/12/11 02:01:34;;;;;;;22.30;15.13;;;1.90;99.90;;;;;;5056668;28;20406;-75
2020/12/11 02:04:00;;;;;;;29.40;17.50;;;2.00;99.90;;;;;;5043648;28;20403;-75
2020/12/11 02:06:26;;;;;;;28.63;18.70;;;2.00;99.90;;;;;;5030216;28;20900;-76
2020/12/11 02:08:56;;;;;;;28.50;18.30;;;1.90;99.90;;;;;;5061764;28;20423;-74
2020/12/11 02:11:23;;;;;;;25.40;16.93;;;1.90;99.90;;;;;;5060742;28;20831;-75
2020/12/11 02:13:51;;;;;;;26.47;17.43;;;1.90;99.90;;;;;;5050509;28;20436;-75
2020/12/11 02:16:21;;;;;;;28.27;17.60;;;1.90;99.90;;;;;;5044120;23;22916;-90
2020/12/11 02:18:48;;;;;;;27.80;16.27;;;1.90;99.90;;;;;;5052838;28;20441;-90
2020/12/11 02:21:14;;;;;;;23.97;17.57;;;1.80;99.90;;;;;;5056349;28;20463;-91
2020/12/11 02:23:42;;;;;;;28.13;18.30;;;1.80;99.90;;;;;;5043174;28;20398;-91
2020/12/11 02:26:08;;;;;;;26.50;17.67;;;1.80;99.90;;;;;;5035800;28;20307;-91
2020/12/11 02:28:36;;;;;;;31.93;18.50;;;1.80;99.90;;;;;;5065370;28;20406;-90
2020/12/11 02:31:03;;;;;;;22.27;16.10;;;1.80;99.90;;;;;;5032158;28;20418;-91
2020/12/11 02:33:28;;;;;;;28.37;18.17;;;1.90;99.90;;;;;;5041846;28;20493;-91
2020/12/11 02:35:55;;;;;;;24.60;17.37;;;1.90;99.90;;;;;;5025121;28;20402;-91
2020/12/11 02:38:22;;;;;;;28.27;18.57;;;1.70;99.90;;;;;;5031999;28;20256;-90
2020/12/11 02:40:56;;;;;;;30.37;18.27;;;1.80;99.90;;;;;;5029415;28;20393;-91
2020/12/11 02:43:22;;;;;;;31.23;18.70;;;1.80;99.90;;;;;;5035613;28;20405;-91
2020/12/11 02:45:51;;;;;;;24.40;16.93;;;1.70;99.90;;;;;;5040083;28;20389;-91
2020/12/11 02:48:19;;;;;;;27.57;18.10;;;1.70;99.90;;;;;;5036135;28;20382;-91
2020/12/11 02:50:45;;;;;;;31.00;18.83;;;1.70;99.90;;;;;;5067711;28;20488;-90
2020/12/11 02:53:11;;;;;;;28.00;17.50;;;1.70;99.90;;;;;;5020569;28;20954;-91
2020/12/11 02:55:37;;;;;;;28.67;17.37;;;1.60;99.90;;;;;;5033045;28;20399;-91
2020/12/11 02:58:03;;;;;;;27.77;18.23;;;1.60;99.90;;;;;;5040772;28;20685;-90
2020/12/11 03:00:29;;;;;;;30.27;18.07;;;1.50;99.90;;;;;;5042042;28;20378;-91
2020/12/11 03:02:55;;;;;;;33.17;19.90;;;1.60;99.90;;;;;;5054946;28;20384;-90
2020/12/11 03:05:20;;;;;;;34.00;19.23;;;1.50;99.90;;;;;;5035136;28;20394;-91
2020/12/11 03:07:46;;;;;;;32.73;19.40;;;1.40;99.90;;;;;;5046714;28;20241;-91
2020/12/11 03:10:12;;;;;;;29.23;17.63;;;1.40;99.90;;;;;;5065563;28;20224;-91
2020/12/11 03:12:39;;;;;;;29.93;18.40;;;1.50;99.90;;;;;;5036188;28;20447;-91
2020/12/11 03:15:05;;;;;;;33.70;19.70;;;1.40;99.90;;;;;;5041424;28;20975;-91
2020/12/11 03:17:30;;;;;;;26.43;16.60;;;1.50;99.90;;;;;;5029701;28;20228;-90
2020/12/11 03:19:57;;;;;;;26.43;16.53;;;1.60;99.90;;;;;;5044069;28;20210;-92
2020/12/11 03:22:23;;;;;;;28.37;18.03;;;1.50;99.90;;;;;;5018153;28;20202;-90
2020/12/11 03:24:48;;;;;;;27.53;18.23;;;1.50;99.90;;;;;;5029376;28;20477;-90
2020/12/11 03:27:14;;;;;;;27.53;18.37;;;1.40;99.90;;;;;;5024483;28;20198;-91
2020/12/11 03:29:41;;;;;;;30.83;20.07;;;1.40;99.90;;;;;;5006929;28;20289;-91
2020/12/11 03:32:07;;;;;;;24.23;16.10;;;1.30;99.90;;;;;;5037973;28;20241;-91
2020/12/11 03:34:32;;;;;;;26.83;19.20;;;1.40;99.90;;;;;;5025549;28;20893;-92
2020/12/11 03:36:58;;;;;;;26.20;16.30;;;1.40;99.90;;;;;;5024600;28;20198;-91
2020/12/11 03:39:26;;;;;;;28.73;17.60;;;1.40;99.90;;;;;;5028161;28;20213;-91
2020/12/11 03:41:53;;;;;;;26.47;16.60;;;1.40;99.90;;;;;;5036497;28;20300;-90
2020/12/11 03:44:19;;;;;;;24.50;16.17;;;1.40;99.90;;;;;;5035598;28;20907;-90
2020/12/11 03:46:45;;;;;;;30.30;17.37;;;1.30;99.90;;;;;;5056531;28;20498;-90
2020/12/11 03:49:11;;;;;;;26.63;16.17;;;1.20;99.90;;;;;;5032784;28;20510;-90
2020/12/11 03:51:37;;;;;;;28.27;16.83;;;1.20;99.90;;;;;;5014462;28;20215;-90
2020/12/11 03:54:03;;;;;;;25.30;18.07;;;1.20;99.90;;;;;;5039293;28;20399;-90
2020/12/11 03:56:29;;;;;;;23.33;17.37;;;1.40;99.90;;;;;;5025773;28;20225;-90
2020/12/11 03:58:55;;;;;;;24.03;16.10;;;1.30;99.90;;;;;;5042639;28;20509;-90
2020/12/11 04:01:21;;;;;;;22.90;15.00;;;1.30;99.90;;;;;;5040144;28;20566;-90
2020/12/11 04:03:47;;;;;;;24.37;16.30;;;1.30;99.90;;;;;;5035264;28;20460;-90
2020/12/11 04:06:15;;;;;;;26.30;16.50;;;1.40;99.90;;;;;;5051824;28;20868;-90
2020/12/11 04:08:42;;;;;;;22.30;14.63;;;1.50;99.90;;;;;;5020428;28;20406;-90
2020/12/11 04:11:11;;;;;;;24.00;15.23;;;1.50;99.90;;;;;;5040497;28;20519;-91
2020/12/11 04:13:37;;;;;;;25.97;16.27;;;1.50;99.90;;;;;;5049807;28;20412;-90
2020/12/11 04:16:04;;;;;;;26.03;16.67;;;1.50;99.90;;;;;;5052685;28;20514;-90
2020/12/11 04:18:30;;;;;;;27.87;17.40;;;1.40;99.90;;;;;;5022858;28;20449;-90
2020/12/11 04:20:57;;;;;;;25.93;17.40;;;1.60;99.90;;;;;;5073030;28;20970;-90
2020/12/11 04:23:27;;;;;;;27.43;16.10;;;1.60;99.90;;;;;;5052966;28;20448;-90
2020/12/11 04:25:53;;;;;;;22.17;15.00;;;1.70;99.90;;;;;;5044973;28;20424;-90
2020/12/11 04:28:20;;;;;;;21.80;15.23;;;1.80;99.90;;;;;;5028115;28;20380;-89
2020/12/11 04:30:46;;;;;;;26.03;14.73;;;1.80;99.90;;;;;;5050606;28;20424;-90
2020/12/11 04:33:12;;;;;;;27.00;16.73;;;1.80;99.90;;;;;;5059621;28;21189;-90
2020/12/11 04:35:37;;;;;;;24.47;15.17;;;1.90;99.90;;;;;;5042909;28;20768;-90
2020/12/11 04:38:04;;;;;;;22.67;14.90;;;1.90;99.90;;;;;;5033821;28;20229;-90
2020/12/11 04:40:30;;;;;;;21.27;13.77;;;1.90;99.90;;;;;;5057649;28;20194;-90
2020/12/11 04:42:56;;;;;;;20.93;14.73;;;1.90;99.90;;;;;;5041223;28;22161;-90
2020/12/11 04:45:23;;;;;;;19.33;14.27;;;2.00;99.90;;;;;;5041191;28;20444;-90
2020/12/11 04:47:50;;;;;;;19.80;13.40;;;2.00;99.90;;;;;;5029734;28;20382;-89
2020/12/11 04:50:17;;;;;;;16.97;13.77;;;2.00;99.90;;;;;;5044479;28;20490;-90
2020/12/11 04:52:45;;;;;;;20.67;12.93;;;2.10;99.90;;;;;;5066690;28;20504;-90
2020/12/11 04:55:16;;;;;;;18.13;13.50;;;2.20;99.90;;;;;;5024870;28;21046;-90
2020/12/11 04:57:47;;;;;;;18.33;12.30;;;2.20;99.90;;;;;;5040096;28;20408;-91
2020/12/11 05:00:14;;;;;;;18.90;14.30;;;2.30;99.90;;;;;;5055474;28;20415;-90
2020/12/11 05:02:41;;;;;;;21.87;14.20;;;2.30;99.90;;;;;;5024335;28;20383;-91
2020/12/11 05:05:08;;;;;;;22.97;14.60;;;2.40;99.90;;;;;;5041094;28;20481;-91
2020/12/11 05:07:34;;;;;;;18.57;13.53;;;2.30;99.90;;;;;;5037048;28;20843;-91
2020/12/11 05:10:00;;;;;;;21.73;14.13;;;2.30;99.90;;;;;;5048978;28;20403;-91
2020/12/11 05:12:26;;;;;;;21.43;13.80;;;2.30;99.90;;;;;;5043450;28;20407;-91
2020/12/11 05:15:05;;;;;;;20.67;13.93;;;2.30;99.90;;;;;;5038971;28;20810;-91
2020/12/11 05:17:34;;;;;;;20.50;14.87;;;2.30;99.90;;;;;;5041964;28;21138;-91
2020/12/11 05:20:00;;;;;;;17.90;13.77;;;2.20;99.90;;;;;;5036540;28;20409;-91
2020/12/11 05:22:37;;;;;;;17.83;12.73;;;2.10;99.90;;;;;;5019438;28;20850;-91
2020/12/11 05:25:05;;;;;;;18.47;14.20;;;2.10;99.90;;;;;;5032110;28;20890;-91
2020/12/11 05:27:41;;;;;;;18.57;13.33;;;2.10;99.90;;;;;;5055330;28;20421;-91
2020/12/11 05:30:10;;;;;;;22.90;13.23;;;2.10;99.90;;;;;;5051938;28;20386;-90
2020/12/11 05:32:38;;;;;;;20.33;13.50;;;2.10;99.90;;;;;;5035694;28;20936;-90
2020/12/11 05:35:19;;;;;;;20.63;13.63;;;2.10;99.90;;;;;;5032419;28;20851;-90
2020/12/11 05:38:05;;;;;;;17.90;13.10;;;2.10;99.90;;;;;;5049646;28;20389;-89
2020/12/11 05:40:37;;;;;;;19.93;14.23;;;2.00;99.90;;;;;;5038348;28;20472;-90
2020/12/11 05:43:16;;;;;;;21.00;13.73;;;2.00;99.90;;;;;;5047659;28;21077;-89
2020/12/11 05:45:48;;;;;;;26.00;14.77;;;2.00;99.90;;;;;;5051549;28;20491;-89
2020/12/11 05:48:14;;;;;;;17.37;12.73;;;1.80;99.90;;;;;;5042166;28;20408;-89
2020/12/11 05:50:40;;;;;;;18.80;12.80;;;1.90;99.90;;;;;;5021049;28;20401;-89
2020/12/11 05:53:06;;;;;;;22.70;14.10;;;1.90;99.90;;;;;;5024798;28;20595;-90
2020/12/11 05:55:32;;;;;;;15.13;13.47;;;1.90;99.90;;;;;;5030986;28;20259;-90
2020/12/11 05:57:59;;;;;;;17.93;12.90;;;1.90;99.90;;;;;;5025416;28;20210;-90
2020/12/11 06:00:27;;;;;;;18.07;12.37;;;2.10;99.90;;;;;;5036192;28;20477;-90
2020/12/11 06:02:54;;;;;;;19.80;13.07;;;2.00;99.90;;;;;;5024105;28;20506;-90
2020/12/11 06:05:23;;;;;;;22.67;14.47;;;1.90;99.90;;;;;;5039342;28;20430;-90
2020/12/11 06:07:50;;;;;;;18.20;13.47;;;2.00;99.90;;;;;;5060349;28;20382;-90
2020/12/11 06:10:18;;;;;;;21.10;14.60;;;2.00;99.90;;;;;;5049053;28;20501;-90
2020/12/11 06:12:44;;;;;;;20.63;14.57;;;2.00;99.90;;;;;;5067512;28;20377;-90
2020/12/11 06:15:22;;;;;;;21.70;15.00;;;2.00;99.90;;;;;;5039805;28;20395;-90
2020/12/11 06:18:19;;;;;;;20.70;13.90;;;2.00;99.90;;;;;;5050670;28;20506;-90
2020/12/11 06:20:47;;;;;;;22.90;15.10;;;1.90;99.90;;;;;;5032915;28;20403;-89
2020/12/11 06:23:49;;;;;;;19.57;14.17;;;1.80;99.90;;;;;;5055159;28;20729;-90
2020/12/11 06:26:15;;;;;;;18.53;13.30;;;2.00;99.90;;;;;;4973650;28;20434;-90
2020/12/11 06:28:50;;;;;;;23.47;14.63;;;2.10;99.90;;;;;;4942769;28;20417;-89
2020/12/11 06:31:18;;;;;;;22.20;14.80;;;2.00;99.90;;;;;;4954229;28;20430;-91
2020/12/11 06:33:48;;;;;;;21.40;13.73;;;2.10;99.90;;;;;;4978144;28;20489;-90
2020/12/11 06:36:16;;;;;;;17.83;12.47;;;2.20;99.90;;;;;;4947212;28;20405;-90
2020/12/11 06:38:51;;;;;;;18.90;13.00;;;2.10;99.90;;;;;;4931945;28;20382;-90
2020/12/11 06:41:31;;;;;;;20.93;14.80;;;2.20;99.90;;;;;;4955045;28;20875;-90
2020/12/11 06:44:13;;;;;;;15.40;11.40;;;2.20;99.90;;;;;;4972231;28;20390;-91
2020/12/11 06:46:39;;;;;;;16.83;12.07;;;2.20;99.90;;;;;;4951835;28;20511;-90
2020/12/11 06:49:14;;;;;;;23.53;15.00;;;2.30;99.90;;;;;;4938666;28;20408;-90
2020/12/11 06:51:45;;;;;;;17.27;11.63;;;2.30;99.90;;;;;;4953570;28;20311;-90
2020/12/11 06:54:23;;;;;;;19.83;13.40;;;2.30;99.90;;;;;;4973139;28;20521;-91
2020/12/11 06:56:50;;;;;;;20.60;14.10;;;2.20;99.90;;;;;;4939461;28;20513;-90
2020/12/11 06:59:25;;;;;;;23.50;13.77;;;2.20;99.90;;;;;;4965897;28;21020;-91
2020/12/11 07:01:51;;;;;;;20.77;12.60;;;2.30;99.90;;;;;;5026959;28;20404;-90
2020/12/11 07:04:17;;;;;;;20.70;12.73;;;2.30;99.90;;;;;;5069957;28;20411;-90
2020/12/11 07:06:50;;;;;;;22.00;15.23;;;2.30;99.90;;;;;;5034163;28;20399;-90
2020/12/11 07:09:16;;;;;;;15.73;11.33;;;2.40;99.90;;;;;;5033607;28;20238;-90
2020/12/11 07:11:43;;;;;;;20.77;14.17;;;2.30;99.90;;;;;;5035827;28;20828;-90
2020/12/11 07:14:13;;;;;;;22.30;14.10;;;2.20;99.90;;;;;;5012837;28;21212;-90
2020/12/11 07:16:44;;;;;;;24.70;14.63;;;2.20;99.90;;;;;;5025083;28;20419;-90
2020/12/11 07:19:11;;;;;;;18.67;13.10;;;2.10;99.90;;;;;;5013096;28;20874;-90
2020/12/11 07:21:39;;;;;;;21.90;13.40;;;2.10;99.90;;;;;;5033532;28;20385;-90
2020/12/11 07:24:06;;;;;;;18.07;13.10;;;2.10;99.90;;;;;;5032129;28;20500;-90
2020/12/11 07:26:32;;;;;;;18.33;12.70;;;2.20;99.90;;;;;;5035175;28;20408;-90
2020/12/11 07:29:29;;;;;;;18.90;14.73;;;2.20;99.90;;;;;;5043499;28;20367;-90
2020/12/11 07:32:18;;;;;;;17.30;12.87;;;2.20;99.90;;;;;;4981797;28;20393;-91
2020/12/11 07:35:10;;;;;;;16.20;11.90;;;2.20;99.90;;;;;;4921806;28;20941;-90
2020/12/11 07:37:47;;;;;;;16.83;10.97;;;2.40;99.90;;;;;;4908648;29;20492;-90
2020/12/11 07:40:18;;;;;;;18.87;13.00;;;2.40;99.90;;;;;;4913281;29;20414;-90
2020/12/11 07:42:46;;;;;;;17.97;13.00;;;2.50;99.90;;;;;;4890226;28;20789;-90
2020/12/11 07:45:27;;;;;;;16.00;12.03;;;2.60;99.90;;;;;;4904250;28;20486;-90
2020/12/11 07:47:56;;;;;;;13.67;12.23;;;2.70;99.90;;;;;;4899143;29;20444;-90
2020/12/11 07:50:45;;;;;;;17.63;12.33;;;2.70;99.90;;;;;;5020227;22;21042;-91
2020/12/11 07:53:13;;;;;;;14.93;9.53;;;2.70;99.90;;;;;;5025239;28;20410;-91
2020/12/11 07:55:44;;;;;;;17.40;12.70;;;2.70;99.90;;;;;;5027784;28;20955;-90
2020/12/11 07:58:15;;;;;;;17.20;12.87;;;2.80;99.90;;;;;;5044152;28;20455;-90
2020/12/11 08:00:57;;;;;;;18.47;14.23;;;2.80;99.90;;;;;;5007575;28;20380;-90
2020/12/11 08:03:47;;;;;;;20.43;13.30;;;2.90;99.90;;;;;;5066595;28;20377;-90
2020/12/11 08:06:29;;;;;;;22.13;14.20;;;2.90;99.90;;;;;;5031677;28;20455;-90
2020/12/11 08:09:38;;;;;;;17.90;12.20;;;3.00;99.90;;;;;;5041418;28;20396;-91
2020/12/11 08:12:27;;;;;;;15.40;11.57;;;3.10;99.90;;;;;;5048121;28;20599;-90
2020/12/11 08:16:11;;;;;;;16.23;12.90;;;3.00;99.90;;;;;;5046349;28;20495;-90
2020/12/11 08:19:14;;;;;;;19.23;13.90;;;3.30;99.90;;;;;;5070667;28;20422;-76
2020/12/11 08:21:41;;;;;;;17.10;12.90;;;4.00;99.90;;;;;;5028405;28;21377;-75
2020/12/11 08:24:08;;;;;;;19.23;12.57;;;3.90;99.90;;;;;;5078466;28;20848;-75
2020/12/11 08:26:38;;;;;;;16.73;12.87;;;4.30;99.90;;;;;;5078790;28;20410;-75
2020/12/11 08:29:08;;;;;;;20.07;14.27;;;4.90;99.90;;;;;;5078564;28;20354;-75
2020/12/11 08:31:39;;;;;;;18.27;13.33;;;5.30;99.90;;;;;;5063665;28;20862;-75
2020/12/11 08:34:09;;;;;;;15.43;11.20;;;4.90;99.90;;;;;;5059341;28;20389;-75
2020/12/11 08:36:45;;;;;;;13.07;10.90;;;4.70;99.90;;;;;;5045289;28;20921;-75
2020/12/11 08:39:15;;;;;;;16.60;12.80;;;4.50;99.90;;;;;;5058407;28;20408;-76
2020/12/11 08:41:52;;;;;;;15.60;12.47;;;4.30;99.90;;;;;;5060240;28;21024;-76
2020/12/11 08:49:40;;;;;;;17.00;13.07;;;4.10;99.90;;;;;;5059300;28;20370;-76
2020/12/11 08:52:07;;;;;;;13.73;11.53;;;4.10;99.90;;;;;;5041144;28;20409;-75
2020/12/11 08:54:34;;;;;;;15.20;13.10;;;4.20;99.90;;;;;;5057024;28;20893;-76
2020/12/11 08:57:00;;;;;;;21.67;13.00;;;4.40;99.90;;;;;;5061865;28;20424;-75
2020/12/11 08:59:26;;;;;;;16.03;11.37;;;4.40;99.90;;;;;;5041965;28;20442;-76
2020/12/11 09:01:51;;;;;;;15.40;11.47;;;4.30;99.90;;;;;;5043227;28;20216;-76
2020/12/11 09:04:17;;;;;;;17.67;11.87;;;4.40;99.90;;;;;;5027393;28;20221;-75
2020/12/11 09:06:44;;;;;;;17.00;11.13;;;4.50;99.90;;;;;;5057649;28;20200;-76
2020/12/11 09:09:10;;;;;;;15.13;11.40;;;4.80;99.90;;;;;;5042041;28;20210;-76
2020/12/11 09:11:36;;;;;;;13.93;11.10;;;4.90;99.90;;;;;;5056196;28;20409;-75
2020/12/11 09:14:02;;;;;;;15.40;12.10;;;4.70;99.90;;;;;;5076822;28;20381;-76
2020/12/11 09:16:27;;;;;;;17.60;10.67;;;4.60;99.90;;;;;;5055117;28;20434;-76
2020/12/11 09:18:53;;;;;;;18.80;12.13;;;4.60;99.90;;;;;;5043228;28;20747;-76
2020/12/11 09:21:20;;;;;;;16.20;10.40;;;4.50;99.90;;;;;;5037672;28;20213;-75
2020/12/11 09:23:45;;;;;;;19.17;12.13;;;4.40;99.90;;;;;;5047016;28;20237;-76
2020/12/11 09:26:11;;;;;;;15.97;11.90;;;4.40;99.90;;;;;;5032779;28;20533;-76
2020/12/11 09:28:39;;;;;;;14.10;9.50;;;4.50;99.90;;;;;;5062455;28;20736;-76
2020/12/11 09:31:04;;;;;;;12.43;9.17;;;4.40;99.90;;;;;;5032013;28;20435;-76
2020/12/11 09:33:36;;;;;;;16.30;11.90;;;4.50;99.90;;;;;;5054146;28;20382;-76
2020/12/11 09:36:03;;;;;;;16.43;11.03;;;4.50;99.90;;;;;;5021291;28;22276;-76
2020/12/11 09:38:29;;;;;;;17.53;11.67;;;4.60;99.90;;;;;;5068586;28;20403;-76
2020/12/11 09:41:00;;;;;;;13.37;10.90;;;4.60;99.90;;;;;;5049392;28;20405;-76
2020/12/11 09:54:11;;;;;;;16.67;11.30;;;4.80;99.90;;;;;;5067295;28;20389;-76
2020/12/11 09:56:37;;;;;;;14.00;11.00;;;4.90;99.90;;;;;;5045744;28;20259;-76
2020/12/11 09:59:23;;;;;;;11.83;9.77;;;5.00;99.90;;;;;;5069685;28;20458;-76
2020/12/11 10:04:17;;;;;;;14.90;11.83;;;5.00;99.90;;;;;;5038385;28;21193;-76
2020/12/11 10:06:43;;;;;;;14.27;9.00;;;4.90;99.90;;;;;;5067893;28;20492;-76
2020/12/11 10:09:09;;;;;;;13.07;10.10;;;5.00;99.90;;;;;;5067097;28;20461;-76
2020/12/11 10:11:35;;;;;;;13.63;10.00;;;5.10;99.90;;;;;;5042740;28;20688;-76
2020/12/11 10:14:37;;;;;;;12.37;8.93;;;5.20;99.90;;;;;;5050821;28;20299;-76
2020/12/11 10:16:53;;;;;;;12.53;10.33;;;5.40;99.90;;;;;;5044678;28;20418;-76
2020/12/11 10:19:22;;;;;;;12.73;9.60;;;5.30;99.90;;;;;;5048066;28;20930;-76
2020/12/11 10:21:52;;;;;;;11.77;8.93;;;5.10;99.90;;;;;;5047263;28;20394;-76
2020/12/11 10:24:19;;;;;;;11.20;8.67;;;5.30;99.90;;;;;;5033705;28;20404;-76
2020/12/11 10:26:45;;;;;;;11.40;9.37;;;5.30;99.90;;;;;;5046728;28;20385;-76
2020/12/11 10:29:11;;;;;;;15.40;10.20;;;5.40;99.90;;;;;;5067580;28;20693;-76
2020/12/11 10:31:41;;;;;;;14.63;9.93;;;5.40;99.90;;;;;;5049251;28;20421;-76
2020/12/11 10:34:08;;;;;;;14.20;9.20;;;5.50;99.90;;;;;;5065758;28;20466;-76
2020/12/11 10:36:34;;;;;;;11.97;10.10;;;5.70;99.90;;;;;;5049250;28;20443;-76
2020/12/11 10:39:00;;;;;;;23.10;12.00;;;6.00;99.90;;;;;;5060006;28;20390;-76
2020/12/11 10:41:26;;;;;;;11.77;9.67;;;6.10;99.90;;;;;;5037640;28;20210;-76
2020/12/11 10:43:52;;;;;;;12.67;9.50;;;7.60;99.90;;;;;;5062013;28;20288;-76
2020/12/11 10:46:18;;;;;;;12.60;8.70;;;7.70;99.90;;;;;;5065598;28;20463;-76
2020/12/11 10:48:44;;;;;;;12.37;9.13;;;7.40;99.90;;;;;;5065256;28;20383;-76
2020/12/11 10:51:15;;;;;;;12.20;9.07;;;7.00;99.90;;;;;;5027638;28;20459;-76
2020/12/11 10:53:42;;;;;;;12.17;9.60;;;6.80;99.90;;;;;;5066983;28;20206;-76
2020/12/11 10:56:09;;;;;;;17.40;10.90;;;6.50;99.90;;;;;;5045641;28;20761;-76
2020/12/11 10:58:35;;;;;;;11.40;9.20;;;6.10;99.90;;;;;;5065483;28;20401;-77
2020/12/11 11:01:05;;;;;;;23.33;10.30;;;6.40;99.90;;;;;;5034742;28;20423;-76
2020/12/11 11:03:31;;;;;;;10.90;8.63;;;6.40;99.90;;;;;;5047215;28;20404;-77
2020/12/11 11:06:02;;;;;;;13.70;10.23;;;6.40;99.90;;;;;;5028067;28;20416;-76
2020/12/11 11:08:43;;;;;;;11.20;8.83;;;6.60;99.90;;;;;;5050123;28;20431;-76
2020/12/11 11:11:08;;;;;;;12.17;9.17;;;6.80;99.90;;;;;;5032951;28;20419;-76
2020/12/11 11:16:03;;;;;;;9.63;7.60;;;7.30;99.90;;;;;;5067676;28;20210;-76
2020/12/11 11:26:32;;;;;;;11.33;8.80;;;6.00;99.90;;;;;;5068915;28;20449;-77
2020/12/11 11:28:58;;;;;;;12.33;8.67;;;5.90;99.90;;;;;;5049183;28;20423;-76
2020/12/11 11:31:24;;;;;;;12.27;8.87;;;6.10;99.90;;;;;;5036796;28;20440;-76
2020/12/11 11:33:50;;;;;;;13.10;8.77;;;6.10;99.90;;;;;;5033114;28;20423;-76
2020/12/11 11:36:15;;;;;;;10.87;8.37;;;6.10;99.90;;;;;;5061435;28;21110;-76
2020/12/11 11:38:41;;;;;;;13.80;9.33;;;6.30;99.90;;;;;;5048369;28;20216;-76
2020/12/11 11:41:07;;;;;;;10.27;9.17;;;6.30;99.90;;;;;;5015264;28;20714;-76
2020/12/11 11:43:48;;;;;;;12.50;9.53;;;6.30;99.90;;;;;;5066436;28;20268;-76
2020/12/11 11:46:14;;;;;;;11.23;7.40;;;6.20;99.90;;;;;;5066109;28;20197;-76
2020/12/11 11:48:42;;;;;;;8.90;7.07;;;6.10;99.90;;;;;;5062343;28;20759;-77
2020/12/11 11:51:16;;;;;;;12.17;7.40;;;6.20;99.90;;;;;;5047903;28;20676;-77
2020/12/11 11:53:42;;;;;;;10.10;8.17;;;6.10;99.90;;;;;;5052857;28;20452;-76
2020/12/11 11:56:07;;;;;;;11.67;8.40;;;6.20;99.90;;;;;;5069121;28;20488;-76
2020/12/11 11:58:33;;;;;;;9.73;8.03;;;6.00;99.90;;;;;;5066349;28;20217;-76
2020/12/11 12:00:59;;;;;;;15.23;9.03;;;5.90;99.90;;;;;;5035884;28;20324;-76
2020/12/11 12:03:24;;;;;;;13.43;8.90;;;5.90;99.90;;;;;;5046297;28;20229;-76
2020/12/11 12:05:51;;;;;;;12.47;9.20;;;5.70;99.90;;;;;;5021004;28;20217;-76
2020/12/11 12:08:20;;;;;;;11.57;8.80;;;5.50;99.90;;;;;;5070693;28;20656;-76
2020/12/11 12:10:46;;;;;;;11.23;8.57;;;5.40;99.90;;;;;;5070273;28;20423;-75
2020/12/11 12:13:13;;;;;;;14.60;10.27;;;5.30;99.90;;;;;;5072421;28;20562;-75
2020/12/11 12:15:39;;;;;;;12.77;9.57;;;5.10;99.90;;;;;;5049714;28;20416;-76
2020/12/11 12:18:08;;;;;;;10.97;8.87;;;5.00;99.90;;;;;;5045176;28;20431;-76
2020/12/11 12:20:53;;;;;;;16.57;11.00;;;5.00;99.90;;;;;;5070755;28;20209;-76
2020/12/11 12:24:08;;;;;;;12.00;8.53;;;5.00;99.90;;;;;;5065912;28;20461;-76
2020/12/11 12:28:56;;;;;;;11.27;9.37;;;4.90;99.90;;;;;;5064474;28;20511;-76
2020/12/11 12:31:29;;;;;;;11.80;9.83;;;4.90;99.90;;;;;;5057122;28;20442;-76
2020/12/11 12:39:50;;;;;;;15.20;9.97;;;5.00;99.90;;;;;;5057848;28;20441;-76
2020/12/11 12:45:00;;;;;;;16.23;9.70;;;4.90;99.90;;;;;;5057608;28;20508;-77
2020/12/11 12:47:26;;;;;;;13.67;8.73;;;4.90;99.90;;;;;;5012455;28;20517;-76
2020/12/11 12:49:52;;;;;;;13.43;9.03;;;5.00;99.90;;;;;;5025310;28;20431;-76
2020/12/11 12:52:17;;;;;;;13.87;10.43;;;5.00;99.90;;;;;;5065138;28;20706;-76
2020/12/11 12:54:43;;;;;;;12.07;9.67;;;5.00;99.90;;;;;;5029825;28;20237;-76
2020/12/11 12:57:16;;;;;;;15.60;10.40;;;5.00;99.90;;;;;;5066764;28;20206;-76
2020/12/11 13:04:42;;;;;;;13.40;9.37;;;5.00;99.90;;;;;;5065885;28;20236;-76
2020/12/11 13:07:08;;;;;;;14.83;9.80;;;5.00;99.90;;;;;;5036049;28;20209;-76
2020/12/11 13:09:35;;;;;;;10.97;9.40;;;5.10;99.90;;;;;;5069311;28;20412;-75
2020/12/11 13:12:01;;;;;;;11.37;8.87;;;5.10;99.90;;;;;;5070988;28;20458;-77
2020/12/11 13:14:27;;;;;;;10.50;8.60;;;5.20;99.90;;;;;;5049696;28;20997;-77
2020/12/11 13:16:53;;;;;;;13.00;9.33;;;5.30;99.90;;;;;;5038347;28;20445;-77
2020/12/11 13:19:22;;;;;;;18.13;10.70;;;5.30;99.90;;;;;;5045385;28;20391;-77
2020/12/11 13:22:16;;;;;;;14.80;9.37;;;5.30;99.90;;;;;;5032482;28;20213;-77
2020/12/11 13:27:29;;;;;;;14.67;10.57;;;5.40;99.90;;;;;;5057734;28;20908;-76
2020/12/11 13:29:55;;;;;;;13.70;10.00;;;5.40;99.90;;;;;;5047022;28;21120;-76
2020/12/11 13:32:21;;;;;;;15.33;11.07;;;5.40;99.90;;;;;;5058212;28;20414;-76
2020/12/11 13:34:48;;;;;;;14.07;9.60;;;5.50;99.90;;;;;;5016465;28;20893;-77
2020/12/11 13:37:14;;;;;;;14.83;9.67;;;5.50;99.90;;;;;;5043902;28;20400;-76